sensor_id;sensor_type;location;lat;lon;timestamp;P1;durP1;ratioP1;P2;durP2;ratioP2
29634;SDS011;16557;54.762;56.068;2023-09-18T00:00:08;26.75;;;23.55;;
29634;SDS011;16557;54.762;56.068;2023-09-18T00:02:50;29.87;;;23.02;;
29634;SDS011;16557;54.762;56.068;2023-09-18T00:05:30;31.60;;;23.42;;
29634;SDS011;16557;54.762;56.068;2023-09-18T00:08:11;30.25;;;23.60;;
29634;SDS011;16557;54.762;56.068;2023-09-18T00:10:54;28.70;;;23.50;;
29634;SDS011;16557;54.762;56.068;2023-09-18T00:13:34;28.92;;;22.52;;
29634;SDS011;16557;54.762;56.068;2023-09-18T00:16:14;28.25;;;22.30;;
29634;SDS011;16557;54.762;56.068;2023-09-18T00:18:55;30.20;;;22.40;;
29634;SDS011;16557;54.762;56.068;2023-09-18T00:21:38;28.23;;;21.77;;
29634;SDS011;16557;54.762;56.068;2023-09-18T00:24:18;28.00;;;22.02;;
29634;SDS011;16557;54.762;56.068;2023-09-18T00:26:58;28.75;;;21.55;;
29634;SDS011;16557;54.762;56.068;2023-09-18T00:29:38;26.57;;;21.97;;
29634;SDS011;16557;54.762;56.068;2023-09-18T00:32:18;24.92;;;21.30;;
29634;SDS011;16557;54.762;56.068;2023-09-18T00:35:05;25.62;;;21.10;;
29634;SDS011;16557;54.762;56.068;2023-09-18T00:37:51;27.85;;;24.87;;
29634;SDS011;16557;54.762;56.068;2023-09-18T00:40:31;30.50;;;21.77;;
29634;SDS011;16557;54.762;56.068;2023-09-18T00:43:15;28.67;;;22.17;;
29634;SDS011;16557;54.762;56.068;2023-09-18T00:45:55;23.75;;;21.05;;
29634;SDS011;16557;54.762;56.068;2023-09-18T00:48:35;24.07;;;21.15;;
29634;SDS011;16557;54.762;56.068;2023-09-18T00:51:16;27.55;;;21.55;;
29634;SDS011;16557;54.762;56.068;2023-09-18T00:53:56;29.77;;;21.40;;
29634;SDS011;16557;54.762;56.068;2023-09-18T00:56:37;26.07;;;22.22;;
29634;SDS011;16557;54.762;56.068;2023-09-18T00:59:23;28.70;;;25.55;;
29634;SDS011;16557;54.762;56.068;2023-09-18T01:02:04;35.50;;;23.42;;
29634;SDS011;16557;54.762;56.068;2023-09-18T01:04:44;26.42;;;23.27;;
29634;SDS011;16557;54.762;56.068;2023-09-18T01:07:26;32.98;;;25.60;;
29634;SDS011;16557;54.762;56.068;2023-09-18T01:10:06;31.73;;;23.38;;
29634;SDS011;16557;54.762;56.068;2023-09-18T01:13:00;26.73;;;22.52;;
29634;SDS011;16557;54.762;56.068;2023-09-18T01:18:29;26.27;;;22.87;;
29634;SDS011;16557;54.762;56.068;2023-09-18T01:21:15;30.15;;;24.47;;
29634;SDS011;16557;54.762;56.068;2023-09-18T01:23:56;26.42;;;20.12;;
29634;SDS011;16557;54.762;56.068;2023-09-18T01:26:40;31.15;;;23.60;;
29634;SDS011;16557;54.762;56.068;2023-09-18T01:29:21;24.47;;;20.70;;
29634;SDS011;16557;54.762;56.068;2023-09-18T01:32:00;24.12;;;21.15;;
29634;SDS011;16557;54.762;56.068;2023-09-18T01:34:41;28.45;;;21.02;;
29634;SDS011;16557;54.762;56.068;2023-09-18T01:37:25;22.62;;;20.17;;
29634;SDS011;16557;54.762;56.068;2023-09-18T01:40:06;24.00;;;18.77;;
29634;SDS011;16557;54.762;56.068;2023-09-18T01:42:47;25.00;;;20.25;;
29634;SDS011;16557;54.762;56.068;2023-09-18T01:45:26;26.57;;;18.85;;
29634;SDS011;16557;54.762;56.068;2023-09-18T01:48:07;23.12;;;20.30;;
29634;SDS011;16557;54.762;56.068;2023-09-18T01:50:53;28.52;;;22.30;;
29634;SDS011;16557;54.762;56.068;2023-09-18T01:53:33;23.15;;;18.45;;
29634;SDS011;16557;54.762;56.068;2023-09-18T01:56:12;25.12;;;19.25;;
29634;SDS011;16557;54.762;56.068;2023-09-18T01:58:52;28.85;;;20.52;;
29634;SDS011;16557;54.762;56.068;2023-09-18T02:01:33;26.80;;;19.98;;
29634;SDS011;16557;54.762;56.068;2023-09-18T02:04:19;25.57;;;21.65;;
29634;SDS011;16557;54.762;56.068;2023-09-18T02:07:03;26.75;;;18.65;;
29634;SDS011;16557;54.762;56.068;2023-09-18T02:09:45;26.68;;;19.02;;
29634;SDS011;16557;54.762;56.068;2023-09-18T02:12:25;23.95;;;19.17;;
29634;SDS011;16557;54.762;56.068;2023-09-18T02:15:05;26.07;;;19.02;;
29634;SDS011;16557;54.762;56.068;2023-09-18T02:17:47;22.82;;;19.23;;
29634;SDS011;16557;54.762;56.068;2023-09-18T02:20:27;26.52;;;20.00;;
29634;SDS011;16557;54.762;56.068;2023-09-18T02:23:07;27.30;;;18.95;;
29634;SDS011;16557;54.762;56.068;2023-09-18T02:25:47;24.23;;;19.25;;
29634;SDS011;16557;54.762;56.068;2023-09-18T02:28:30;28.73;;;20.12;;
29634;SDS011;16557;54.762;56.068;2023-09-18T02:31:11;24.45;;;19.82;;
29634;SDS011;16557;54.762;56.068;2023-09-18T02:33:52;21.95;;;19.62;;
29634;SDS011;16557;54.762;56.068;2023-09-18T02:36:32;27.62;;;19.52;;
29634;SDS011;16557;54.762;56.068;2023-09-18T02:39:12;24.75;;;19.45;;
29634;SDS011;16557;54.762;56.068;2023-09-18T02:41:52;32.48;;;21.27;;
29634;SDS011;16557;54.762;56.068;2023-09-18T02:44:32;26.60;;;20.80;;
29634;SDS011;16557;54.762;56.068;2023-09-18T02:47:13;26.48;;;22.10;;
29634;SDS011;16557;54.762;56.068;2023-09-18T02:49:54;23.85;;;19.17;;
29634;SDS011;16557;54.762;56.068;2023-09-18T02:52:35;27.10;;;18.73;;
29634;SDS011;16557;54.762;56.068;2023-09-18T02:55:19;20.50;;;18.35;;
29634;SDS011;16557;54.762;56.068;2023-09-18T02:57:59;21.23;;;19.15;;
29634;SDS011;16557;54.762;56.068;2023-09-18T03:00:42;22.07;;;18.70;;
29634;SDS011;16557;54.762;56.068;2023-09-18T03:03:33;21.82;;;18.48;;
29634;SDS011;16557;54.762;56.068;2023-09-18T03:06:12;19.92;;;17.85;;
29634;SDS011;16557;54.762;56.068;2023-09-18T03:08:53;22.30;;;18.50;;
29634;SDS011;16557;54.762;56.068;2023-09-18T03:11:33;23.35;;;18.40;;
29634;SDS011;16557;54.762;56.068;2023-09-18T03:14:14;22.05;;;18.75;;
29634;SDS011;16557;54.762;56.068;2023-09-18T03:16:54;21.87;;;16.65;;
29634;SDS011;16557;54.762;56.068;2023-09-18T03:19:35;20.88;;;17.15;;
29634;SDS011;16557;54.762;56.068;2023-09-18T03:22:15;21.42;;;16.27;;
29634;SDS011;16557;54.762;56.068;2023-09-18T03:24:55;19.37;;;15.55;;
29634;SDS011;16557;54.762;56.068;2023-09-18T03:27:35;19.32;;;15.40;;
29634;SDS011;16557;54.762;56.068;2023-09-18T03:30:15;18.07;;;14.78;;
29634;SDS011;16557;54.762;56.068;2023-09-18T03:32:55;15.98;;;14.18;;
29634;SDS011;16557;54.762;56.068;2023-09-18T03:35:46;19.30;;;16.93;;
29634;SDS011;16557;54.762;56.068;2023-09-18T03:38:25;15.68;;;14.15;;
29634;SDS011;16557;54.762;56.068;2023-09-18T03:41:05;16.02;;;12.63;;
29634;SDS011;16557;54.762;56.068;2023-09-18T03:43:55;18.80;;;13.30;;
29634;SDS011;16557;54.762;56.068;2023-09-18T03:46:35;26.30;;;12.88;;
29634;SDS011;16557;54.762;56.068;2023-09-18T03:49:15;19.30;;;13.13;;
29634;SDS011;16557;54.762;56.068;2023-09-18T03:51:56;15.23;;;12.43;;
29634;SDS011;16557;54.762;56.068;2023-09-18T03:54:36;21.57;;;12.78;;
29634;SDS011;16557;54.762;56.068;2023-09-18T03:57:16;17.55;;;12.78;;
29634;SDS011;16557;54.762;56.068;2023-09-18T03:59:57;20.35;;;12.60;;
29634;SDS011;16557;54.762;56.068;2023-09-18T04:02:37;15.20;;;13.32;;
29634;SDS011;16557;54.762;56.068;2023-09-18T04:05:17;15.38;;;13.25;;
29634;SDS011;16557;54.762;56.068;2023-09-18T04:07:57;21.25;;;13.62;;
29634;SDS011;16557;54.762;56.068;2023-09-18T04:10:38;19.27;;;14.35;;
29634;SDS011;16557;54.762;56.068;2023-09-18T04:13:18;26.85;;;14.65;;
29634;SDS011;16557;54.762;56.068;2023-09-18T04:15:59;21.68;;;14.23;;
29634;SDS011;16557;54.762;56.068;2023-09-18T04:18:40;21.10;;;14.28;;
29634;SDS011;16557;54.762;56.068;2023-09-18T04:21:21;17.92;;;14.33;;
29634;SDS011;16557;54.762;56.068;2023-09-18T04:24:01;18.70;;;14.13;;
29634;SDS011;16557;54.762;56.068;2023-09-18T04:26:41;27.32;;;15.00;;
29634;SDS011;16557;54.762;56.068;2023-09-18T04:29:23;17.00;;;12.63;;
29634;SDS011;16557;54.762;56.068;2023-09-18T04:32:04;17.70;;;12.80;;
29634;SDS011;16557;54.762;56.068;2023-09-18T04:34:44;15.15;;;11.43;;
29634;SDS011;16557;54.762;56.068;2023-09-18T04:37:24;14.25;;;10.40;;
29634;SDS011;16557;54.762;56.068;2023-09-18T04:40:05;15.25;;;10.15;;
29634;SDS011;16557;54.762;56.068;2023-09-18T04:42:49;11.60;;;9.73;;
29634;SDS011;16557;54.762;56.068;2023-09-18T04:45:30;14.65;;;10.75;;
29634;SDS011;16557;54.762;56.068;2023-09-18T04:48:10;12.90;;;10.55;;
29634;SDS011;16557;54.762;56.068;2023-09-18T04:50:57;13.15;;;11.50;;
29634;SDS011;16557;54.762;56.068;2023-09-18T04:53:38;11.75;;;10.18;;
29634;SDS011;16557;54.762;56.068;2023-09-18T04:56:18;12.13;;;9.65;;
29634;SDS011;16557;54.762;56.068;2023-09-18T04:58:59;14.83;;;10.38;;
29634;SDS011;16557;54.762;56.068;2023-09-18T05:01:38;12.05;;;10.08;;
29634;SDS011;16557;54.762;56.068;2023-09-18T05:04:18;17.50;;;10.65;;
29634;SDS011;16557;54.762;56.068;2023-09-18T05:06:58;18.00;;;11.10;;
29634;SDS011;16557;54.762;56.068;2023-09-18T05:09:41;16.50;;;10.75;;
29634;SDS011;16557;54.762;56.068;2023-09-18T05:12:21;17.98;;;10.75;;
29634;SDS011;16557;54.762;56.068;2023-09-18T05:15:01;17.35;;;11.10;;
29634;SDS011;16557;54.762;56.068;2023-09-18T05:17:43;16.07;;;12.10;;
29634;SDS011;16557;54.762;56.068;2023-09-18T05:20:33;17.00;;;13.55;;
29634;SDS011;16557;54.762;56.068;2023-09-18T05:23:14;17.30;;;12.73;;
29634;SDS011;16557;54.762;56.068;2023-09-18T05:25:54;20.32;;;13.93;;
29634;SDS011;16557;54.762;56.068;2023-09-18T05:28:34;18.35;;;14.70;;
29634;SDS011;16557;54.762;56.068;2023-09-18T05:31:21;27.93;;;17.48;;
29634;SDS011;16557;54.762;56.068;2023-09-18T05:34:02;19.23;;;15.63;;
29634;SDS011;16557;54.762;56.068;2023-09-18T05:36:42;19.98;;;15.05;;
29634;SDS011;16557;54.762;56.068;2023-09-18T05:39:22;21.68;;;14.47;;
29634;SDS011;16557;54.762;56.068;2023-09-18T05:42:02;27.15;;;14.85;;
29634;SDS011;16557;54.762;56.068;2023-09-18T05:44:49;17.92;;;12.68;;
29634;SDS011;16557;54.762;56.068;2023-09-18T05:47:33;28.00;;;15.23;;
29634;SDS011;16557;54.762;56.068;2023-09-18T05:50:17;25.50;;;15.03;;
29634;SDS011;16557;54.762;56.068;2023-09-18T05:52:57;22.05;;;14.63;;
29634;SDS011;16557;54.762;56.068;2023-09-18T05:55:38;38.70;;;19.75;;
29634;SDS011;16557;54.762;56.068;2023-09-18T05:58:18;27.02;;;15.08;;
29634;SDS011;16557;54.762;56.068;2023-09-18T06:01:00;24.35;;;16.90;;
29634;SDS011;16557;54.762;56.068;2023-09-18T06:03:46;31.10;;;14.23;;
29634;SDS011;16557;54.762;56.068;2023-09-18T06:06:32;24.40;;;17.00;;
29634;SDS011;16557;54.762;56.068;2023-09-18T06:09:12;26.25;;;15.28;;
29634;SDS011;16557;54.762;56.068;2023-09-18T06:11:52;24.07;;;15.15;;
29634;SDS011;16557;54.762;56.068;2023-09-18T06:14:31;20.72;;;13.98;;
29634;SDS011;16557;54.762;56.068;2023-09-18T06:17:16;23.12;;;14.43;;
29634;SDS011;16557;54.762;56.068;2023-09-18T06:19:56;23.62;;;14.47;;
29634;SDS011;16557;54.762;56.068;2023-09-18T06:22:39;25.48;;;14.95;;
29634;SDS011;16557;54.762;56.068;2023-09-18T06:25:19;16.82;;;13.18;;
29634;SDS011;16557;54.762;56.068;2023-09-18T06:28:18;18.00;;;13.83;;
29634;SDS011;16557;54.762;56.068;2023-09-18T06:30:58;22.90;;;14.50;;
29634;SDS011;16557;54.762;56.068;2023-09-18T06:33:38;22.20;;;14.28;;
29634;SDS011;16557;54.762;56.068;2023-09-18T06:36:18;20.88;;;14.55;;
29634;SDS011;16557;54.762;56.068;2023-09-18T06:39:04;20.00;;;14.98;;
29634;SDS011;16557;54.762;56.068;2023-09-18T06:41:46;20.90;;;14.38;;
29634;SDS011;16557;54.762;56.068;2023-09-18T06:44:26;24.95;;;14.20;;
29634;SDS011;16557;54.762;56.068;2023-09-18T06:47:06;21.27;;;13.05;;
29634;SDS011;16557;54.762;56.068;2023-09-18T06:49:52;17.33;;;13.77;;
29634;SDS011;16557;54.762;56.068;2023-09-18T06:52:32;21.68;;;13.13;;
29634;SDS011;16557;54.762;56.068;2023-09-18T06:55:16;16.82;;;12.58;;
29634;SDS011;16557;54.762;56.068;2023-09-18T06:57:56;19.60;;;13.20;;
29634;SDS011;16557;54.762;56.068;2023-09-18T07:00:40;19.05;;;11.73;;
29634;SDS011;16557;54.762;56.068;2023-09-18T07:03:20;17.73;;;11.55;;
29634;SDS011;16557;54.762;56.068;2023-09-18T07:06:01;21.57;;;12.88;;
29634;SDS011;16557;54.762;56.068;2023-09-18T07:08:42;21.00;;;12.58;;
29634;SDS011;16557;54.762;56.068;2023-09-18T07:11:23;17.27;;;11.80;;
29634;SDS011;16557;54.762;56.068;2023-09-18T07:14:03;15.55;;;11.93;;
29634;SDS011;16557;54.762;56.068;2023-09-18T07:16:44;21.70;;;11.73;;
29634;SDS011;16557;54.762;56.068;2023-09-18T07:19:24;25.57;;;12.28;;
29634;SDS011;16557;54.762;56.068;2023-09-18T07:22:04;16.67;;;11.55;;
29634;SDS011;16557;54.762;56.068;2023-09-18T07:24:44;60.28;;;14.28;;
29634;SDS011;16557;54.762;56.068;2023-09-18T07:27:30;14.93;;;11.00;;
29634;SDS011;16557;54.762;56.068;2023-09-18T07:30:11;20.52;;;11.00;;
29634;SDS011;16557;54.762;56.068;2023-09-18T07:33:00;15.05;;;10.35;;
29634;SDS011;16557;54.762;56.068;2023-09-18T07:35:41;15.18;;;8.95;;
29634;SDS011;16557;54.762;56.068;2023-09-18T07:38:26;13.65;;;9.00;;
29634;SDS011;16557;54.762;56.068;2023-09-18T07:41:06;15.80;;;8.65;;
29634;SDS011;16557;54.762;56.068;2023-09-18T07:43:46;22.20;;;13.80;;
29634;SDS011;16557;54.762;56.068;2023-09-18T07:46:26;28.87;;;15.55;;
29634;SDS011;16557;54.762;56.068;2023-09-18T07:49:05;21.12;;;10.85;;
29634;SDS011;16557;54.762;56.068;2023-09-18T07:51:45;15.00;;;8.10;;
29634;SDS011;16557;54.762;56.068;2023-09-18T07:54:25;12.20;;;8.25;;
29634;SDS011;16557;54.762;56.068;2023-09-18T07:57:05;14.03;;;8.03;;
29634;SDS011;16557;54.762;56.068;2023-09-18T07:59:47;11.38;;;8.53;;
29634;SDS011;16557;54.762;56.068;2023-09-18T08:02:27;9.88;;;7.97;;
29634;SDS011;16557;54.762;56.068;2023-09-18T08:05:08;14.13;;;7.75;;
29634;SDS011;16557;54.762;56.068;2023-09-18T08:07:48;13.70;;;7.80;;
29634;SDS011;16557;54.762;56.068;2023-09-18T08:10:29;18.48;;;8.20;;
29634;SDS011;16557;54.762;56.068;2023-09-18T08:13:10;11.95;;;7.40;;
29634;SDS011;16557;54.762;56.068;2023-09-18T08:15:51;12.50;;;7.40;;
29634;SDS011;16557;54.762;56.068;2023-09-18T08:18:32;8.18;;;6.05;;
29634;SDS011;16557;54.762;56.068;2023-09-18T08:21:12;12.00;;;6.45;;
29634;SDS011;16557;54.762;56.068;2023-09-18T08:23:52;11.10;;;6.30;;
29634;SDS011;16557;54.762;56.068;2023-09-18T08:26:32;11.95;;;6.90;;
29634;SDS011;16557;54.762;56.068;2023-09-18T08:29:14;7.65;;;6.05;;
29634;SDS011;16557;54.762;56.068;2023-09-18T08:31:54;15.78;;;7.78;;
29634;SDS011;16557;54.762;56.068;2023-09-18T08:34:33;8.80;;;6.10;;
29634;SDS011;16557;54.762;56.068;2023-09-18T08:37:13;9.20;;;6.70;;
29634;SDS011;16557;54.762;56.068;2023-09-18T08:39:57;12.80;;;6.60;;
29634;SDS011;16557;54.762;56.068;2023-09-18T08:42:52;12.30;;;7.33;;
29634;SDS011;16557;54.762;56.068;2023-09-18T08:45:38;15.83;;;6.80;;
29634;SDS011;16557;54.762;56.068;2023-09-18T08:48:25;13.65;;;6.70;;
29634;SDS011;16557;54.762;56.068;2023-09-18T08:51:12;10.78;;;6.30;;
29634;SDS011;16557;54.762;56.068;2023-09-18T08:53:57;16.20;;;5.87;;
29634;SDS011;16557;54.762;56.068;2023-09-18T08:56:37;9.98;;;5.65;;
29634;SDS011;16557;54.762;56.068;2023-09-18T08:59:23;11.10;;;6.10;;
29634;SDS011;16557;54.762;56.068;2023-09-18T09:02:05;9.15;;;5.40;;
29634;SDS011;16557;54.762;56.068;2023-09-18T09:04:54;11.55;;;4.95;;
29634;SDS011;16557;54.762;56.068;2023-09-18T09:07:36;9.95;;;5.17;;
29634;SDS011;16557;54.762;56.068;2023-09-18T09:10:17;10.05;;;5.62;;
29634;SDS011;16557;54.762;56.068;2023-09-18T09:13:10;11.48;;;5.42;;
29634;SDS011;16557;54.762;56.068;2023-09-18T09:15:51;12.28;;;5.87;;
29634;SDS011;16557;54.762;56.068;2023-09-18T09:18:46;12.43;;;6.40;;
29634;SDS011;16557;54.762;56.068;2023-09-18T09:21:37;10.88;;;5.53;;
29634;SDS011;16557;54.762;56.068;2023-09-18T09:24:18;8.35;;;4.67;;
29634;SDS011;16557;54.762;56.068;2023-09-18T09:27:08;13.98;;;5.55;;
29634;SDS011;16557;54.762;56.068;2023-09-18T09:29:59;8.05;;;4.35;;
29634;SDS011;16557;54.762;56.068;2023-09-18T09:32:40;11.90;;;5.37;;
29634;SDS011;16557;54.762;56.068;2023-09-18T09:38:07;11.22;;;4.95;;
29634;SDS011;16557;54.762;56.068;2023-09-18T09:40:53;8.75;;;4.53;;
29634;SDS011;16557;54.762;56.068;2023-09-18T09:43:33;6.12;;;4.60;;
29634;SDS011;16557;54.762;56.068;2023-09-18T09:46:16;8.78;;;4.90;;
29634;SDS011;16557;54.762;56.068;2023-09-18T09:49:05;12.55;;;5.12;;
29634;SDS011;16557;54.762;56.068;2023-09-18T09:51:51;10.50;;;5.00;;
29634;SDS011;16557;54.762;56.068;2023-09-18T09:54:33;11.57;;;6.15;;
29634;SDS011;16557;54.762;56.068;2023-09-18T09:57:14;8.48;;;4.50;;
29634;SDS011;16557;54.762;56.068;2023-09-18T10:00:02;8.40;;;4.90;;
29634;SDS011;16557;54.762;56.068;2023-09-18T10:02:50;9.80;;;5.00;;
29634;SDS011;16557;54.762;56.068;2023-09-18T10:05:34;12.50;;;5.20;;
29634;SDS011;16557;54.762;56.068;2023-09-18T10:08:23;7.90;;;4.78;;
29634;SDS011;16557;54.762;56.068;2023-09-18T10:11:08;16.77;;;5.33;;
29634;SDS011;16557;54.762;56.068;2023-09-18T10:14:00;8.93;;;4.80;;
29634;SDS011;16557;54.762;56.068;2023-09-18T10:19:39;11.93;;;5.85;;
29634;SDS011;16557;54.762;56.068;2023-09-18T10:25:08;10.90;;;5.37;;
29634;SDS011;16557;54.762;56.068;2023-09-18T10:28:01;10.60;;;5.45;;
29634;SDS011;16557;54.762;56.068;2023-09-18T10:30:41;9.60;;;5.30;;
29634;SDS011;16557;54.762;56.068;2023-09-18T10:33:23;10.75;;;5.78;;
29634;SDS011;16557;54.762;56.068;2023-09-18T10:36:16;10.75;;;5.20;;
29634;SDS011;16557;54.762;56.068;2023-09-18T10:38:58;9.18;;;5.22;;
29634;SDS011;16557;54.762;56.068;2023-09-18T10:41:42;13.00;;;6.03;;
29634;SDS011;16557;54.762;56.068;2023-09-18T10:44:24;8.78;;;6.25;;
29634;SDS011;16557;54.762;56.068;2023-09-18T10:47:13;8.30;;;4.92;;
29634;SDS011;16557;54.762;56.068;2023-09-18T10:50:26;9.73;;;4.75;;
29634;SDS011;16557;54.762;56.068;2023-09-18T10:53:04;7.20;;;4.85;;
29634;SDS011;16557;54.762;56.068;2023-09-18T10:55:49;8.85;;;4.97;;
29634;SDS011;16557;54.762;56.068;2023-09-18T10:58:33;8.78;;;4.83;;
29634;SDS011;16557;54.762;56.068;2023-09-18T11:01:19;6.03;;;5.30;;
29634;SDS011;16557;54.762;56.068;2023-09-18T11:04:01;10.48;;;5.90;;
29634;SDS011;16557;54.762;56.068;2023-09-18T11:09:41;12.98;;;5.28;;
29634;SDS011;16557;54.762;56.068;2023-09-18T11:12:45;9.78;;;5.83;;
29634;SDS011;16557;54.762;56.068;2023-09-18T11:15:31;11.28;;;6.30;;
29634;SDS011;16557;54.762;56.068;2023-09-18T11:18:11;8.33;;;6.40;;
29634;SDS011;16557;54.762;56.068;2023-09-18T11:23:47;8.38;;;5.15;;
29634;SDS011;16557;54.762;56.068;2023-09-18T11:26:34;8.85;;;6.20;;
29634;SDS011;16557;54.762;56.068;2023-09-18T11:33:46;11.40;;;6.40;;
29634;SDS011;16557;54.762;56.068;2023-09-18T11:39:09;9.05;;;5.83;;
29634;SDS011;16557;54.762;56.068;2023-09-18T11:42:05;8.83;;;5.03;;
29634;SDS011;16557;54.762;56.068;2023-09-18T11:44:52;11.25;;;5.58;;
29634;SDS011;16557;54.762;56.068;2023-09-18T11:47:33;13.83;;;6.03;;
29634;SDS011;16557;54.762;56.068;2023-09-18T11:50:16;9.60;;;5.85;;
29634;SDS011;16557;54.762;56.068;2023-09-18T11:52:58;9.23;;;5.75;;
29634;SDS011;16557;54.762;56.068;2023-09-18T11:55:39;11.90;;;5.35;;
29634;SDS011;16557;54.762;56.068;2023-09-18T11:58:19;9.93;;;5.33;;
29634;SDS011;16557;54.762;56.068;2023-09-18T12:01:10;7.92;;;5.15;;
29634;SDS011;16557;54.762;56.068;2023-09-18T12:03:55;9.05;;;5.22;;
29634;SDS011;16557;54.762;56.068;2023-09-18T12:06:49;13.85;;;5.55;;
29634;SDS011;16557;54.762;56.068;2023-09-18T12:09:39;11.22;;;7.45;;
29634;SDS011;16557;54.762;56.068;2023-09-18T12:12:19;8.63;;;5.40;;
29634;SDS011;16557;54.762;56.068;2023-09-18T12:15:00;7.47;;;5.42;;
29634;SDS011;16557;54.762;56.068;2023-09-18T12:17:42;7.10;;;5.20;;
29634;SDS011;16557;54.762;56.068;2023-09-18T12:20:27;8.00;;;5.42;;
29634;SDS011;16557;54.762;56.068;2023-09-18T12:23:10;9.20;;;6.15;;
29634;SDS011;16557;54.762;56.068;2023-09-18T12:25:57;13.60;;;7.67;;
29634;SDS011;16557;54.762;56.068;2023-09-18T12:28:45;9.23;;;6.35;;
29634;SDS011;16557;54.762;56.068;2023-09-18T12:31:45;9.25;;;5.58;;
29634;SDS011;16557;54.762;56.068;2023-09-18T12:34:28;8.68;;;5.97;;
29634;SDS011;16557;54.762;56.068;2023-09-18T12:37:11;7.55;;;5.33;;
29634;SDS011;16557;54.762;56.068;2023-09-18T12:39:52;12.10;;;6.08;;
29634;SDS011;16557;54.762;56.068;2023-09-18T12:42:33;8.90;;;4.92;;
29634;SDS011;16557;54.762;56.068;2023-09-18T12:45:17;13.13;;;5.78;;
29634;SDS011;16557;54.762;56.068;2023-09-18T12:47:59;10.38;;;6.35;;
29634;SDS011;16557;54.762;56.068;2023-09-18T12:50:51;6.08;;;4.70;;
29634;SDS011;16557;54.762;56.068;2023-09-18T12:53:36;5.80;;;4.70;;
29634;SDS011;16557;54.762;56.068;2023-09-18T12:56:25;6.80;;;4.72;;
29634;SDS011;16557;54.762;56.068;2023-09-18T12:59:10;7.25;;;4.47;;
29634;SDS011;16557;54.762;56.068;2023-09-18T13:01:50;6.05;;;4.50;;
29634;SDS011;16557;54.762;56.068;2023-09-18T13:04:31;7.37;;;5.00;;
29634;SDS011;16557;54.762;56.068;2023-09-18T13:07:17;8.48;;;4.33;;
29634;SDS011;16557;54.762;56.068;2023-09-18T13:10:04;8.20;;;5.55;;
29634;SDS011;16557;54.762;56.068;2023-09-18T13:12:49;6.15;;;4.53;;
29634;SDS011;16557;54.762;56.068;2023-09-18T13:15:32;8.95;;;4.78;;
29634;SDS011;16557;54.762;56.068;2023-09-18T13:18:19;9.40;;;4.90;;
29634;SDS011;16557;54.762;56.068;2023-09-18T13:20:59;8.68;;;5.85;;
29634;SDS011;16557;54.762;56.068;2023-09-18T13:23:43;7.15;;;5.20;;
29634;SDS011;16557;54.762;56.068;2023-09-18T13:26:24;11.80;;;5.15;;
29634;SDS011;16557;54.762;56.068;2023-09-18T13:29:04;12.03;;;5.20;;
29634;SDS011;16557;54.762;56.068;2023-09-18T13:31:44;11.30;;;8.08;;
29634;SDS011;16557;54.762;56.068;2023-09-18T13:34:29;6.85;;;5.20;;
29634;SDS011;16557;54.762;56.068;2023-09-18T13:37:10;11.18;;;5.30;;
29634;SDS011;16557;54.762;56.068;2023-09-18T13:39:51;10.13;;;6.37;;
29634;SDS011;16557;54.762;56.068;2023-09-18T13:42:31;13.30;;;6.33;;
29634;SDS011;16557;54.762;56.068;2023-09-18T13:45:13;9.93;;;6.85;;
29634;SDS011;16557;54.762;56.068;2023-09-18T13:47:56;7.62;;;6.25;;
29634;SDS011;16557;54.762;56.068;2023-09-18T13:50:38;10.88;;;5.80;;
29634;SDS011;16557;54.762;56.068;2023-09-18T13:53:18;9.65;;;5.45;;
29634;SDS011;16557;54.762;56.068;2023-09-18T13:56:02;10.90;;;6.50;;
29634;SDS011;16557;54.762;56.068;2023-09-18T13:58:50;15.05;;;6.60;;
29634;SDS011;16557;54.762;56.068;2023-09-18T14:01:35;18.98;;;6.33;;
29634;SDS011;16557;54.762;56.068;2023-09-18T14:04:17;16.90;;;7.35;;
29634;SDS011;16557;54.762;56.068;2023-09-18T14:06:59;20.85;;;7.17;;
29634;SDS011;16557;54.762;56.068;2023-09-18T14:10:05;27.27;;;9.38;;
29634;SDS011;16557;54.762;56.068;2023-09-18T14:13:06;9.28;;;6.22;;
29634;SDS011;16557;54.762;56.068;2023-09-18T14:19:41;17.05;;;8.33;;
29634;SDS011;16557;54.762;56.068;2023-09-18T14:22:23;15.08;;;8.68;;
29634;SDS011;16557;54.762;56.068;2023-09-18T14:25:03;18.48;;;7.05;;
29634;SDS011;16557;54.762;56.068;2023-09-18T14:27:46;16.80;;;7.10;;
29634;SDS011;16557;54.762;56.068;2023-09-18T14:30:31;20.72;;;7.42;;
29634;SDS011;16557;54.762;56.068;2023-09-18T14:33:14;19.42;;;11.03;;
29634;SDS011;16557;54.762;56.068;2023-09-18T14:36:05;17.20;;;10.05;;
29634;SDS011;16557;54.762;56.068;2023-09-18T14:38:49;29.80;;;13.22;;
29634;SDS011;16557;54.762;56.068;2023-09-18T14:41:35;83.25;;;60.58;;
29634;SDS011;16557;54.762;56.068;2023-09-18T14:44:20;67.10;;;41.20;;
29634;SDS011;16557;54.762;56.068;2023-09-18T14:47:06;30.72;;;13.05;;
29634;SDS011;16557;54.762;56.068;2023-09-18T14:49:54;41.45;;;24.18;;
29634;SDS011;16557;54.762;56.068;2023-09-18T14:52:38;32.40;;;17.75;;
29634;SDS011;16557;54.762;56.068;2023-09-18T14:55:18;25.48;;;12.00;;
29634;SDS011;16557;54.762;56.068;2023-09-18T14:58:04;20.55;;;12.07;;
29634;SDS011;16557;54.762;56.068;2023-09-18T15:01:00;33.05;;;22.13;;
29634;SDS011;16557;54.762;56.068;2023-09-18T15:03:41;40.90;;;29.48;;
29634;SDS011;16557;54.762;56.068;2023-09-18T15:06:24;49.18;;;31.17;;
29634;SDS011;16557;54.762;56.068;2023-09-18T15:09:05;14.80;;;10.28;;
29634;SDS011;16557;54.762;56.068;2023-09-18T15:11:46;18.07;;;8.13;;
29634;SDS011;16557;54.762;56.068;2023-09-18T15:14:33;33.53;;;18.70;;
29634;SDS011;16557;54.762;56.068;2023-09-18T15:17:14;79.40;;;48.05;;
29634;SDS011;16557;54.762;56.068;2023-09-18T15:19:54;93.92;;;62.75;;
29634;SDS011;16557;54.762;56.068;2023-09-18T15:22:35;27.50;;;17.67;;
29634;SDS011;16557;54.762;56.068;2023-09-18T15:25:15;22.75;;;16.48;;
29634;SDS011;16557;54.762;56.068;2023-09-18T15:27:55;29.15;;;16.87;;
29634;SDS011;16557;54.762;56.068;2023-09-18T15:30:35;27.05;;;15.88;;
29634;SDS011;16557;54.762;56.068;2023-09-18T15:33:15;32.25;;;23.42;;
29634;SDS011;16557;54.762;56.068;2023-09-18T15:35:55;40.05;;;32.65;;
29634;SDS011;16557;54.762;56.068;2023-09-18T15:38:39;61.70;;;43.65;;
29634;SDS011;16557;54.762;56.068;2023-09-18T15:41:19;51.60;;;33.60;;
29634;SDS011;16557;54.762;56.068;2023-09-18T15:43:59;35.78;;;22.02;;
29634;SDS011;16557;54.762;56.068;2023-09-18T15:46:45;30.95;;;22.17;;
29634;SDS011;16557;54.762;56.068;2023-09-18T15:49:25;29.67;;;14.68;;
29634;SDS011;16557;54.762;56.068;2023-09-18T15:52:07;25.85;;;12.70;;
29634;SDS011;16557;54.762;56.068;2023-09-18T15:54:47;34.78;;;12.07;;
29634;SDS011;16557;54.762;56.068;2023-09-18T15:57:28;32.30;;;12.00;;
29634;SDS011;16557;54.762;56.068;2023-09-18T16:00:14;25.23;;;11.08;;
29634;SDS011;16557;54.762;56.068;2023-09-18T16:02:55;27.32;;;11.97;;
29634;SDS011;16557;54.762;56.068;2023-09-18T16:05:36;27.75;;;9.73;;
29634;SDS011;16557;54.762;56.068;2023-09-18T16:08:19;21.75;;;9.63;;
29634;SDS011;16557;54.762;56.068;2023-09-18T16:10:58;26.85;;;10.50;;
29634;SDS011;16557;54.762;56.068;2023-09-18T16:13:39;30.80;;;12.73;;